createdAt,value
2022-07-30T00:01:34.089Z,17.81
2022-07-30T00:08:37.996Z,17.49
2022-07-30T00:15:41.542Z,17.24
2022-07-30T00:22:43.763Z,17.09
2022-07-30T00:29:45.950Z,17.01
2022-07-30T00:36:50.033Z,16.80
2022-07-30T00:43:52.363Z,16.68
2022-07-30T00:50:54.564Z,16.63
2022-07-30T00:57:58.147Z,16.65
2022-07-30T01:05:00.677Z,16.68
2022-07-30T01:12:02.982Z,16.72
2022-07-30T01:19:28.575Z,16.54
2022-07-30T01:26:32.155Z,16.53
2022-07-30T01:33:35.108Z,16.61
2022-07-30T01:40:37.668Z,16.50
2022-07-30T01:47:41.305Z,16.42
2022-07-30T01:54:43.870Z,16.30
2022-07-30T02:01:47.068Z,16.04
2022-07-30T02:08:52.355Z,15.95
2022-07-30T02:15:57.803Z,16.03
2022-07-30T02:23:03.237Z,16.11
2022-07-30T02:30:08.081Z,16.25
2022-07-30T02:37:12.320Z,16.33
2022-07-30T02:44:17.887Z,16.39
2022-07-30T02:51:24.098Z,16.38
2022-07-30T02:58:26.320Z,16.36
2022-07-30T03:05:28.547Z,16.23
2022-07-30T03:12:32.789Z,16.11
2022-07-30T03:19:37.314Z,15.95
2022-07-30T03:26:39.680Z,15.87
2022-07-30T03:33:45.939Z,15.69
2022-07-30T03:40:49.796Z,15.58
2022-07-30T03:47:52.811Z,15.51
2022-07-30T03:54:56.987Z,15.45
2022-07-30T04:02:18.423Z,15.43
2022-07-30T04:09:41.154Z,15.31
2022-07-30T04:17:04.255Z,15.36
2022-07-30T04:24:07.144Z,15.63
2022-07-30T04:31:09.430Z,16.13
2022-07-30T04:38:14.340Z,16.70
2022-07-30T04:45:20.215Z,17.50
2022-07-30T04:52:35.188Z,18.44
2022-07-30T04:59:40.714Z,19.47
2022-07-30T05:06:43.228Z,20.71
2022-07-30T05:13:48.357Z,21.04
2022-07-30T05:20:55.686Z,20.54
2022-07-30T05:28:02.549Z,21.09
2022-07-30T05:35:05.777Z,23.53
2022-07-30T05:42:09.443Z,22.69
2022-07-30T05:49:27.447Z,21.84
2022-07-30T05:56:37.640Z,21.80
2022-07-30T06:03:48.745Z,22.02
2022-07-30T06:11:17.061Z,22.02
2022-07-30T06:18:19.726Z,22.21
2022-07-30T06:25:28.836Z,22.20
2022-07-30T06:32:31.392Z,22.34
2022-07-30T06:39:57.446Z,22.45
2022-07-30T06:46:57.226Z,22.32
2022-07-30T06:54:01.367Z,22.65
2022-07-30T07:01:26.391Z,22.95
2022-07-30T07:08:31.863Z,22.90
2022-07-30T07:15:36.815Z,22.98
2022-07-30T07:22:42.842Z,23.12
2022-07-30T07:30:01.683Z,23.09
2022-07-30T07:37:09.073Z,23.13
2022-07-30T07:44:12.020Z,23.39
2022-07-30T07:51:15.585Z,23.59
2022-07-30T07:58:40.511Z,23.96
2022-07-30T08:06:01.039Z,23.98
2022-07-30T08:13:49.000Z,24.09
2022-07-30T08:21:22.009Z,24.56
2022-07-30T08:28:35.831Z,24.35
2022-07-30T08:35:41.640Z,24.31
2022-07-30T08:42:55.274Z,24.82
2022-07-30T08:50:04.273Z,24.99
2022-07-30T08:57:08.777Z,25.24
2022-07-30T09:04:14.282Z,23.76
2022-07-30T09:11:17.954Z,25.27
2022-07-30T09:18:28.517Z,24.40
2022-07-30T09:25:35.669Z,24.54
2022-07-30T09:33:01.808Z,25.40
2022-07-30T09:40:26.977Z,25.45
2022-07-30T09:48:20.651Z,25.21
2022-07-30T09:55:30.559Z,25.85
2022-07-30T10:02:33.641Z,25.71
2022-07-30T10:09:55.947Z,26.55
2022-07-30T10:16:58.552Z,26.46
2022-07-30T10:24:01.367Z,26.36
2022-07-30T10:31:49.062Z,26.09
2022-07-30T10:38:56.974Z,25.68
2022-07-30T10:46:02.741Z,26.47
2022-07-30T10:53:08.579Z,28.16
2022-07-30T11:00:15.584Z,27.38
2022-07-30T11:07:31.279Z,26.56
2022-07-30T11:15:07.132Z,25.58
2022-07-30T11:22:25.530Z,27.50
2022-07-30T11:29:50.734Z,28.14
2022-07-30T11:37:18.353Z,27.50
2022-07-30T11:44:28.483Z,27.07
2022-07-30T11:51:39.909Z,25.47
2022-07-30T11:58:44.732Z,24.78
2022-07-30T12:05:51.248Z,24.69
2022-07-30T12:13:10.002Z,27.22
2022-07-30T12:20:17.723Z,26.36
2022-07-30T12:27:19.936Z,25.25
2022-07-30T12:34:23.009Z,24.76
2022-07-30T12:48:54.556Z,27.35
2022-07-30T12:56:10.526Z,28.29
2022-07-30T13:03:19.980Z,28.09
2022-07-30T13:10:28.555Z,26.69
2022-07-30T13:17:37.676Z,26.61
2022-07-30T13:24:40.483Z,26.73
2022-07-30T13:31:44.345Z,26.73
2022-07-30T13:38:52.359Z,26.49
2022-07-30T13:45:55.396Z,26.25
2022-07-30T13:53:03.876Z,26.27
2022-07-30T14:00:07.736Z,26.08
2022-07-30T14:07:10.603Z,26.53
2022-07-30T14:14:14.133Z,26.57
2022-07-30T14:21:16.328Z,26.29
2022-07-30T14:28:18.533Z,25.62
2022-07-30T14:35:22.067Z,25.94
2022-07-30T14:42:25.524Z,25.67
2022-07-30T14:49:28.007Z,25.58
2022-07-30T14:56:31.715Z,25.73
2022-07-30T15:03:34.558Z,25.48
2022-07-30T15:10:39.394Z,25.31
2022-07-30T15:17:44.541Z,25.32
2022-07-30T15:24:46.873Z,25.57
2022-07-30T15:31:49.081Z,25.55
2022-07-30T15:38:52.662Z,25.35
2022-07-30T15:45:56.496Z,25.31
2022-07-30T15:52:59.478Z,25.38
2022-07-30T16:00:03.833Z,25.35
2022-07-30T16:07:14.444Z,25.28
2022-07-30T16:14:16.946Z,25.21
2022-07-30T16:21:22.717Z,25.40
2022-07-30T16:28:27.206Z,25.33
2022-07-30T16:35:31.386Z,25.30
2022-07-30T16:42:37.644Z,24.86
2022-07-30T16:49:40.282Z,24.71
2022-07-30T16:56:42.805Z,25.01
2022-07-30T17:03:49.417Z,25.11
2022-07-30T17:10:52.036Z,25.12
2022-07-30T17:17:56.423Z,24.95
2022-07-30T17:25:02.326Z,24.90
2022-07-30T17:32:05.666Z,24.74
2022-07-30T17:39:08.278Z,24.79
2022-07-30T17:46:22.344Z,24.57
2022-07-30T17:53:24.571Z,24.50
2022-07-30T18:00:27.265Z,24.33
2022-07-30T18:07:31.460Z,24.07
2022-07-30T18:14:34.325Z,23.83
2022-07-30T18:21:38.613Z,23.62
2022-07-30T18:28:43.342Z,23.47
2022-07-30T18:35:45.608Z,23.28
2022-07-30T18:42:50.047Z,23.09
2022-07-30T18:49:55.401Z,22.82
2022-07-30T18:56:57.962Z,22.47
2022-07-30T19:04:00.576Z,22.33
2022-07-30T19:11:04.405Z,22.08
2022-07-30T19:18:06.691Z,21.75
2022-07-30T19:25:09.863Z,21.60
2022-07-30T19:32:19.606Z,21.49
2022-07-30T19:39:22.248Z,21.40
2022-07-30T19:46:25.001Z,21.36
2022-07-30T19:53:31.122Z,21.37
2022-07-30T20:00:35.750Z,21.30
2022-07-30T20:07:38.745Z,21.17
2022-07-30T20:14:43.339Z,21.02
2022-07-30T20:21:57.543Z,20.97
2022-07-30T20:29:00.096Z,20.90
2022-07-30T20:36:09.747Z,20.82
2022-07-30T20:43:12.535Z,20.80
2022-07-30T20:50:14.822Z,20.81
2022-07-30T20:57:20.232Z,20.75
2022-07-30T21:04:41.587Z,20.72
2022-07-30T21:11:50.581Z,20.68
2022-07-30T21:18:57.102Z,20.58
2022-07-30T21:26:05.811Z,20.51
2022-07-30T21:33:12.838Z,20.37
2022-07-30T21:40:19.046Z,20.38
2022-07-30T21:47:27.053Z,20.18
2022-07-30T21:54:34.953Z,19.43
2022-07-30T22:01:49.531Z,18.91
2022-07-30T22:08:52.313Z,18.97
2022-07-30T22:15:56.461Z,18.96
2022-07-30T22:23:02.287Z,18.95
2022-07-30T22:30:08.024Z,18.77
2022-07-30T22:44:34.477Z,18.40
2022-07-30T22:52:01.936Z,18.30
2022-07-30T22:58:59.111Z,18.32
2022-07-30T23:06:03.164Z,18.40
2022-07-30T23:12:32.352Z,18.61
2022-07-30T23:20:13.185Z,18.31
2022-07-30T23:27:18.155Z,18.32
2022-07-30T23:34:24.281Z,18.27
2022-07-30T23:41:29.842Z,18.09
2022-07-30T23:48:34.331Z,18.08
2022-07-30T23:55:38.023Z,18.00
